Time;durP1;ratioP1;P1;durP2;ratioP2;P2;SDS_P1;SDS_P2;PMS_P1;PMS_P2;Temp;Humidity;BMP_temperature;BMP_pressure;BME280_temperature;BME280_humidity;BME280_pressure;Samples;Min_cycle;Max_cycle;Signal;HPM_P1;HPM_P2
2024/02/01 00:01:32;;;;;;;10.43;5.30;;;;;;;;;;5047492;28;20032;-84
2024/02/01 00:04:17;;;;;;;13.95;5.05;;;;;;;;;;5049909;28;20083;-84
2024/02/01 00:07:02;;;;;;;8.68;4.90;;;;;;;;;;5054039;28;20111;-83
2024/02/01 00:09:48;;;;;;;7.97;4.20;;;;;;;;;;5060598;28;20038;-84
2024/02/01 00:12:33;;;;;;;20.45;6.13;;;;;;;;;;5041657;28;20032;-83
2024/02/01 00:15:18;;;;;;;10.98;4.93;;;;;;;;;;5053197;28;20028;-83
2024/02/01 00:18:04;;;;;;;10.70;4.35;;;;;;;;;;5060009;28;20044;-84
2024/02/01 00:20:49;;;;;;;11.60;5.05;;;;;;;;;;5054948;28;20020;-82
2024/02/01 00:23:34;;;;;;;10.88;4.75;;;;;;;;;;5047916;28;20039;-85
2024/02/01 00:26:20;;;;;;;11.48;4.85;;;;;;;;;;5047458;28;20020;-84
2024/02/01 00:29:05;;;;;;;12.48;4.95;;;;;;;;;;5035976;28;20478;-84
2024/02/01 00:31:51;;;;;;;12.38;5.60;;;;;;;;;;5046150;28;20090;-85
2024/02/01 00:34:42;;;;;;;8.43;4.93;;;;;;;;;;5043263;28;20052;-86
2024/02/01 00:37:28;;;;;;;9.45;4.65;;;;;;;;;;5040469;28;20029;-85
2024/02/01 00:40:13;;;;;;;9.25;4.78;;;;;;;;;;5057466;28;20414;-84
2024/02/01 00:42:59;;;;;;;10.20;5.72;;;;;;;;;;5040068;28;20020;-85
2024/02/01 00:45:44;;;;;;;9.85;5.53;;;;;;;;;;5048604;28;20021;-85
2024/02/01 00:48:30;;;;;;;11.95;5.28;;;;;;;;;;5025463;28;20033;-85
2024/02/01 00:51:15;;;;;;;9.38;4.60;;;;;;;;;;5053149;28;20448;-82
2024/02/01 00:54:00;;;;;;;10.63;5.03;;;;;;;;;;5043552;28;20120;-84
2024/02/01 00:56:45;;;;;;;10.10;5.50;;;;;;;;;;5041659;28;20025;-83
2024/02/01 00:59:31;;;;;;;9.07;4.20;;;;;;;;;;5041669;28;20021;-83
2024/02/01 01:02:16;;;;;;;13.50;4.53;;;;;;;;;;5050564;28;20024;-82
2024/02/01 01:05:02;;;;;;;13.13;4.78;;;;;;;;;;5038800;28;20037;-83
2024/02/01 01:07:47;;;;;;;12.75;4.57;;;;;;;;;;5046671;28;20206;-82
2024/02/01 01:10:32;;;;;;;10.38;5.45;;;;;;;;;;5055759;28;20067;-83
2024/02/01 01:13:18;;;;;;;13.27;5.20;;;;;;;;;;5040177;28;20021;-82
2024/02/01 01:16:03;;;;;;;10.23;4.22;;;;;;;;;;5029545;28;20044;-85
2024/02/01 01:18:49;;;;;;;9.80;4.60;;;;;;;;;;5056120;28;20097;-85
2024/02/01 01:21:34;;;;;;;9.80;4.40;;;;;;;;;;5037145;28;20032;-84
2024/02/01 01:24:19;;;;;;;8.20;4.10;;;;;;;;;;5029436;28;20033;-84
2024/02/01 01:27:05;;;;;;;11.13;4.95;;;;;;;;;;5045076;28;20033;-84
2024/02/01 01:29:51;;;;;;;7.43;4.75;;;;;;;;;;5046241;28;20029;-85
2024/02/01 01:32:36;;;;;;;10.48;5.40;;;;;;;;;;5047500;28;20530;-83
2024/02/01 01:35:22;;;;;;;8.57;4.22;;;;;;;;;;5057100;28;20659;-83
2024/02/01 01:38:07;;;;;;;10.25;4.20;;;;;;;;;;5057646;28;20064;-85
2024/02/01 01:40:52;;;;;;;8.70;4.35;;;;;;;;;;5028498;28;20085;-84
2024/02/01 01:43:37;;;;;;;10.07;5.28;;;;;;;;;;5041274;28;20033;-84
2024/02/01 01:46:23;;;;;;;6.90;3.83;;;;;;;;;;5048132;28;20024;-84
2024/02/01 01:49:09;;;;;;;10.50;4.00;;;;;;;;;;5043076;28;20020;-83
2024/02/01 01:51:54;;;;;;;7.97;4.30;;;;;;;;;;5035188;28;20042;-84
2024/02/01 01:54:40;;;;;;;10.02;4.35;;;;;;;;;;5029251;28;20056;-84
2024/02/01 01:57:28;;;;;;;9.38;4.07;;;;;;;;;;5039476;28;20024;-83
2024/02/01 02:00:14;;;;;;;8.50;3.58;;;;;;;;;;5058188;28;20386;-83
2024/02/01 02:02:59;;;;;;;8.30;3.80;;;;;;;;;;5039441;28;20087;-84
2024/02/01 02:05:45;;;;;;;10.27;3.88;;;;;;;;;;5028395;28;20027;-85
2024/02/01 02:08:30;;;;;;;8.63;4.28;;;;;;;;;;5039294;28;20024;-82
2024/02/01 02:11:15;;;;;;;6.28;3.47;;;;;;;;;;5060680;28;20026;-84
2024/02/01 02:14:01;;;;;;;8.52;3.95;;;;;;;;;;5028243;28;20025;-83
2024/02/01 02:16:47;;;;;;;9.45;4.20;;;;;;;;;;5027563;28;20025;-83
2024/02/01 02:19:33;;;;;;;8.77;4.25;;;;;;;;;;5051552;28;20024;-82
2024/02/01 02:22:18;;;;;;;9.65;3.55;;;;;;;;;;5048428;28;20020;-84
2024/02/01 02:25:05;;;;;;;9.35;3.72;;;;;;;;;;5045363;28;20119;-82
2024/02/01 02:27:50;;;;;;;8.40;3.53;;;;;;;;;;5049922;28;20036;-84
2024/02/01 02:30:36;;;;;;;8.20;3.58;;;;;;;;;;5028248;28;20457;-84
2024/02/01 02:33:21;;;;;;;8.95;4.20;;;;;;;;;;5032171;28;20049;-82
2024/02/01 02:36:09;;;;;;;8.07;3.22;;;;;;;;;;5006586;28;20033;-83
2024/02/01 02:38:55;;;;;;;8.85;4.65;;;;;;;;;;5026393;28;20036;-83
2024/02/01 02:41:41;;;;;;;9.50;4.30;;;;;;;;;;5026554;28;20024;-83
2024/02/01 02:44:26;;;;;;;6.47;3.22;;;;;;;;;;5028705;28;20021;-82
2024/02/01 02:47:11;;;;;;;10.85;4.13;;;;;;;;;;5022711;28;20060;-84
2024/02/01 02:49:56;;;;;;;10.88;4.30;;;;;;;;;;5029521;28;20025;-84
2024/02/01 02:52:42;;;;;;;12.65;5.55;;;;;;;;;;5033253;28;20017;-83
2024/02/01 02:55:28;;;;;;;10.38;4.63;;;;;;;;;;5035757;28;20044;-82
2024/02/01 02:58:13;;;;;;;9.40;4.78;;;;;;;;;;5036794;28;20040;-83
2024/02/01 03:00:58;;;;;;;10.90;5.10;;;;;;;;;;5033846;28;20025;-83
2024/02/01 03:03:43;;;;;;;10.10;5.05;;;;;;;;;;5033061;28;20032;-83
2024/02/01 03:06:30;;;;;;;9.73;4.72;;;;;;;;;;5014666;28;20025;-83
2024/02/01 03:09:16;;;;;;;9.05;4.57;;;;;;;;;;5031036;28;20714;-84
2024/02/01 03:12:06;;;;;;;9.98;4.63;;;;;;;;;;5013828;28;20372;-83
2024/02/01 03:14:53;;;;;;;8.52;4.40;;;;;;;;;;5037497;28;20032;-83
2024/02/01 03:17:38;;;;;;;10.27;4.65;;;;;;;;;;5039033;28;20433;-85
2024/02/01 03:20:25;;;;;;;9.35;3.92;;;;;;;;;;5024225;28;20021;-83
2024/02/01 03:23:10;;;;;;;7.28;4.00;;;;;;;;;;5025273;28;20028;-84
2024/02/01 03:25:58;;;;;;;7.07;3.92;;;;;;;;;;5031642;28;20087;-83
2024/02/01 03:28:44;;;;;;;10.27;4.53;;;;;;;;;;5032249;28;20037;-84
2024/02/01 03:31:33;;;;;;;6.90;4.00;;;;;;;;;;5028101;28;20032;-84
2024/02/01 03:34:21;;;;;;;9.65;3.55;;;;;;;;;;5029731;28;20045;-83
2024/02/01 03:37:07;;;;;;;5.55;3.95;;;;;;;;;;5019693;28;20029;-83
2024/02/01 03:39:52;;;;;;;6.75;3.00;;;;;;;;;;5026386;28;20033;-84
2024/02/01 03:42:38;;;;;;;6.95;3.75;;;;;;;;;;5014032;28;20036;-85
2024/02/01 03:45:29;;;;;;;7.20;3.38;;;;;;;;;;5019644;28;20107;-86
2024/02/01 03:48:20;;;;;;;5.20;3.40;;;;;;;;;;5034248;28;20021;-84
2024/02/01 03:51:07;;;;;;;6.40;3.63;;;;;;;;;;5031445;28;20093;-83
2024/02/01 03:53:52;;;;;;;6.32;3.58;;;;;;;;;;5016788;28;20026;-84
2024/02/01 03:56:37;;;;;;;6.25;3.80;;;;;;;;;;5023083;28;20032;-85
2024/02/01 03:59:23;;;;;;;4.85;3.25;;;;;;;;;;5022264;28;20031;-85
2024/02/01 04:02:14;;;;;;;6.47;3.00;;;;;;;;;;5024752;28;20050;-85
2024/02/01 04:04:59;;;;;;;7.47;3.20;;;;;;;;;;5019605;28;20143;-86
2024/02/01 04:07:44;;;;;;;6.20;3.20;;;;;;;;;;5032572;28;20047;-84
2024/02/01 04:10:30;;;;;;;8.38;3.50;;;;;;;;;;5037764;28;20139;-85
2024/02/01 04:13:16;;;;;;;6.15;3.03;;;;;;;;;;5024577;28;20013;-85
2024/02/01 04:16:01;;;;;;;6.55;3.63;;;;;;;;;;5027289;28;20316;-85
2024/02/01 04:18:46;;;;;;;5.65;2.85;;;;;;;;;;5025373;28;20368;-84
2024/02/01 04:21:31;;;;;;;5.35;3.00;;;;;;;;;;5036365;28;20553;-83
2024/02/01 04:24:20;;;;;;;5.43;3.30;;;;;;;;;;5012986;28;20297;-85
2024/02/01 04:27:05;;;;;;;5.45;3.22;;;;;;;;;;5021313;28;20028;-85
2024/02/01 04:29:53;;;;;;;8.57;3.45;;;;;;;;;;5030896;28;20059;-85
2024/02/01 04:32:38;;;;;;;8.02;3.45;;;;;;;;;;5031998;28;20047;-84
2024/02/01 04:35:24;;;;;;;7.78;3.55;;;;;;;;;;5037880;28;20161;-82
2024/02/01 04:38:09;;;;;;;11.32;5.25;;;;;;;;;;5043705;28;20111;-82
2024/02/01 04:40:54;;;;;;;6.82;3.90;;;;;;;;;;5024742;28;20048;-83
2024/02/01 04:43:43;;;;;;;13.50;5.43;;;;;;;;;;5033078;28;20512;-84
2024/02/01 04:46:28;;;;;;;7.30;3.22;;;;;;;;;;5049323;28;20024;-85
2024/02/01 04:49:16;;;;;;;6.35;3.50;;;;;;;;;;5046272;28;20024;-84
2024/02/01 04:52:02;;;;;;;5.20;3.22;;;;;;;;;;5063208;28;20025;-85
2024/02/01 04:54:47;;;;;;;6.95;3.38;;;;;;;;;;5026823;28;20413;-82
2024/02/01 04:57:33;;;;;;;6.53;3.40;;;;;;;;;;5046172;28;20054;-84
2024/02/01 05:00:18;;;;;;;7.57;3.35;;;;;;;;;;5055134;28;20029;-84
2024/02/01 05:03:03;;;;;;;5.43;2.78;;;;;;;;;;5045767;28;20059;-84
2024/02/01 05:05:49;;;;;;;5.55;3.03;;;;;;;;;;5047199;28;20467;-88
2024/02/01 05:08:34;;;;;;;6.90;3.58;;;;;;;;;;5045936;28;20033;-86
2024/02/01 05:11:19;;;;;;;7.22;3.25;;;;;;;;;;5030733;28;20032;-86
2024/02/01 05:14:10;;;;;;;5.25;2.72;;;;;;;;;;5025346;28;20055;-85
2024/02/01 05:16:56;;;;;;;5.03;2.50;;;;;;;;;;5043992;28;20103;-83
2024/02/01 05:19:41;;;;;;;5.35;2.63;;;;;;;;;;5058829;28;20070;-85
2024/02/01 05:22:26;;;;;;;3.53;2.50;;;;;;;;;;5058601;28;20060;-84
2024/02/01 05:25:15;;;;;;;6.15;2.95;;;;;;;;;;5045957;28;20055;-85
2024/02/01 05:28:00;;;;;;;7.28;2.53;;;;;;;;;;5049840;28;20033;-85
2024/02/01 05:30:45;;;;;;;5.88;2.45;;;;;;;;;;5041724;28;20035;-84
2024/02/01 05:33:30;;;;;;;5.90;2.15;;;;;;;;;;5015464;28;20038;-83
2024/02/01 05:36:16;;;;;;;5.40;2.65;;;;;;;;;;5011221;28;20053;-83
2024/02/01 05:39:05;;;;;;;7.13;3.05;;;;;;;;;;5027240;28;20025;-83
2024/02/01 05:41:51;;;;;;;6.15;3.45;;;;;;;;;;5041812;28;20081;-85
2024/02/01 05:44:36;;;;;;;5.93;2.88;;;;;;;;;;5035538;28;20035;-84
2024/02/01 05:47:21;;;;;;;6.10;2.60;;;;;;;;;;5041407;28;20036;-84
2024/02/01 05:50:07;;;;;;;4.82;2.53;;;;;;;;;;5019303;28;20024;-83
2024/02/01 05:52:52;;;;;;;6.47;2.78;;;;;;;;;;5024957;28;20037;-82
2024/02/01 05:55:38;;;;;;;7.93;3.00;;;;;;;;;;5007965;28;20032;-83
2024/02/01 05:58:23;;;;;;;6.43;3.55;;;;;;;;;;5037847;28;20036;-84
2024/02/01 06:01:16;;;;;;;5.90;3.25;;;;;;;;;;5035680;28;20053;-83
2024/02/01 06:04:01;;;;;;;5.65;2.92;;;;;;;;;;5039721;28;20037;-84
2024/02/01 06:06:47;;;;;;;4.47;3.03;;;;;;;;;;5037034;28;20032;-84
2024/02/01 06:09:32;;;;;;;4.47;2.92;;;;;;;;;;5032363;28;20414;-85
2024/02/01 06:12:18;;;;;;;5.88;3.40;;;;;;;;;;5041848;28;20180;-82
2024/02/01 06:15:05;;;;;;;6.82;3.33;;;;;;;;;;5040783;28;20031;-82
2024/02/01 06:17:50;;;;;;;6.80;2.72;;;;;;;;;;5035373;28;20064;-81
2024/02/01 06:20:35;;;;;;;5.28;2.67;;;;;;;;;;5033425;28;20371;-81
2024/02/01 06:23:20;;;;;;;6.38;2.83;;;;;;;;;;5008215;28;20033;-81
2024/02/01 06:26:07;;;;;;;7.03;3.08;;;;;;;;;;5018417;28;20411;-83
2024/02/01 06:28:53;;;;;;;7.22;3.25;;;;;;;;;;5033182;28;20052;-83
2024/02/01 06:31:39;;;;;;;6.78;3.08;;;;;;;;;;5020481;28;20025;-81
2024/02/01 06:34:38;;;;;;;8.02;3.67;;;;;;;;;;5032505;28;20075;-82
2024/02/01 06:37:28;;;;;;;6.50;3.17;;;;;;;;;;5033799;28;20016;-82
2024/02/01 06:40:37;;;;;;;5.45;2.97;;;;;;;;;;5027916;28;20037;-81
2024/02/01 06:43:31;;;;;;;6.05;3.35;;;;;;;;;;5042462;28;20060;-83
2024/02/01 06:46:38;;;;;;;6.10;3.00;;;;;;;;;;5036170;28;20038;-80
2024/02/01 06:55:24;;;;;;;8.48;2.97;;;;;;;;;;5017301;28;20091;-80
2024/02/01 06:58:15;;;;;;;8.65;3.40;;;;;;;;;;5015178;28;20021;-80
2024/02/01 07:01:13;;;;;;;5.82;3.47;;;;;;;;;;5022635;28;20082;-80
2024/02/01 07:04:15;;;;;;;6.65;4.03;;;;;;;;;;5013935;28;20063;-81
2024/02/01 07:07:18;;;;;;;7.40;3.75;;;;;;;;;;5037382;28;20099;-81
2024/02/01 07:10:14;;;;;;;6.90;3.20;;;;;;;;;;5017795;28;20033;-79
2024/02/01 07:13:12;;;;;;;8.55;3.72;;;;;;;;;;5028284;28;20064;-80
2024/02/01 07:16:13;;;;;;;15.20;7.38;;;;;;;;;;5025873;28;20083;-81
2024/02/01 07:19:23;;;;;;;12.45;4.95;;;;;;;;;;5047503;28;20016;-81
2024/02/01 07:22:22;;;;;;;7.78;3.95;;;;;;;;;;5005285;28;20037;-81
2024/02/01 07:25:11;;;;;;;9.43;3.80;;;;;;;;;;5029608;28;20032;-81
2024/02/01 07:58:49;;;;;;;8.32;4.28;;;;;;;;;;5025723;28;20967;-81
2024/02/01 08:01:48;;;;;;;8.65;3.60;;;;;;;;;;5025289;28;20021;-79
2024/02/01 08:07:49;;;;;;;7.20;3.53;;;;;;;;;;5019236;28;20035;-79
2024/02/01 08:10:35;;;;;;;10.35;3.47;;;;;;;;;;5019269;28;20033;-79
2024/02/01 08:13:20;;;;;;;7.75;3.28;;;;;;;;;;5012763;28;20021;-79
2024/02/01 08:16:05;;;;;;;7.13;3.03;;;;;;;;;;5009115;28;20124;-79
2024/02/01 08:18:51;;;;;;;6.93;2.50;;;;;;;;;;5015638;28;20086;-81
2024/02/01 08:21:39;;;;;;;6.95;2.35;;;;;;;;;;5023159;28;20029;-80
2024/02/01 08:24:24;;;;;;;5.45;2.78;;;;;;;;;;5014454;28;20014;-80
2024/02/01 08:27:14;;;;;;;5.03;2.95;;;;;;;;;;5017051;28;20029;-82
2024/02/01 08:30:12;;;;;;;8.10;2.22;;;;;;;;;;5016935;28;20033;-80
2024/02/01 08:33:03;;;;;;;5.20;2.33;;;;;;;;;;5017075;28;20055;-79
2024/02/01 08:35:48;;;;;;;3.67;2.05;;;;;;;;;;5015226;28;20041;-81
2024/02/01 08:38:34;;;;;;;4.75;2.22;;;;;;;;;;5016942;28;20065;-79
2024/02/01 08:41:19;;;;;;;5.18;2.58;;;;;;;;;;5017338;28;20029;-83
2024/02/01 08:44:07;;;;;;;7.65;3.10;;;;;;;;;;5014165;28;20243;-83
2024/02/01 08:46:53;;;;;;;6.97;4.00;;;;;;;;;;5019041;28;20017;-86
2024/02/01 08:49:39;;;;;;;11.98;3.58;;;;;;;;;;5014745;28;20324;-82
2024/02/01 08:52:24;;;;;;;5.40;2.40;;;;;;;;;;5003582;28;20570;-81
2024/02/01 08:55:10;;;;;;;7.07;2.90;;;;;;;;;;5012460;28;20021;-80
2024/02/01 08:57:55;;;;;;;6.55;2.28;;;;;;;;;;5016804;28;20025;-81
2024/02/01 09:00:42;;;;;;;5.85;2.53;;;;;;;;;;5022524;28;20036;-81
2024/02/01 09:03:32;;;;;;;5.60;2.92;;;;;;;;;;5017656;28;20141;-81
2024/02/01 09:06:18;;;;;;;5.78;3.42;;;;;;;;;;5016358;28;20076;-81
2024/02/01 09:09:24;;;;;;;5.47;2.40;;;;;;;;;;5014494;28;20033;-81
2024/02/01 09:12:16;;;;;;;5.22;2.00;;;;;;;;;;5011737;28;20025;-80
2024/02/01 09:15:01;;;;;;;5.10;2.85;;;;;;;;;;5013803;28;20029;-80
2024/02/01 09:17:47;;;;;;;5.53;2.08;;;;;;;;;;5006541;28;20030;-79
2024/02/01 09:20:32;;;;;;;3.53;2.17;;;;;;;;;;5016902;28;20035;-79
2024/02/01 09:23:17;;;;;;;5.63;2.33;;;;;;;;;;5020476;28;20043;-79
2024/02/01 09:26:03;;;;;;;2.75;1.98;;;;;;;;;;5018652;28;20028;-79
2024/02/01 09:28:51;;;;;;;4.20;1.90;;;;;;;;;;5025900;28;20452;-80
2024/02/01 09:31:37;;;;;;;3.10;1.83;;;;;;;;;;5037335;28;20096;-81
2024/02/01 09:34:22;;;;;;;3.42;1.95;;;;;;;;;;5025553;28;20072;-81
2024/02/01 09:37:07;;;;;;;5.40;2.75;;;;;;;;;;5025424;28;20459;-81
2024/02/01 09:39:53;;;;;;;2.72;1.90;;;;;;;;;;5013249;28;20029;-81
2024/02/01 09:42:39;;;;;;;3.00;2.15;;;;;;;;;;5016417;28;20040;-83
2024/02/01 09:45:28;;;;;;;5.40;2.75;;;;;;;;;;5013103;28;20610;-79
2024/02/01 09:48:16;;;;;;;6.57;2.78;;;;;;;;;;5017097;28;20033;-79
2024/02/01 09:51:01;;;;;;;5.38;2.20;;;;;;;;;;5015692;28;20044;-79
2024/02/01 09:53:49;;;;;;;3.90;1.90;;;;;;;;;;5026646;28;20024;-80
2024/02/01 09:56:34;;;;;;;3.55;2.10;;;;;;;;;;5024867;28;20511;-78
2024/02/01 09:59:23;;;;;;;4.60;1.95;;;;;;;;;;5039867;28;20029;-81
2024/02/01 10:02:12;;;;;;;4.97;2.45;;;;;;;;;;5023496;28;20042;-80
2024/02/01 10:04:57;;;;;;;5.82;2.58;;;;;;;;;;5024247;28;20068;-80
2024/02/01 10:07:43;;;;;;;3.95;2.38;;;;;;;;;;5028324;28;20033;-81
2024/02/01 10:10:28;;;;;;;3.03;2.10;;;;;;;;;;5016182;28;20116;-82
2024/02/01 10:13:14;;;;;;;4.35;2.00;;;;;;;;;;5020260;28;20087;-81
2024/02/01 10:16:00;;;;;;;5.03;1.60;;;;;;;;;;5022649;28;20071;-81
2024/02/01 10:18:52;;;;;;;2.78;1.90;;;;;;;;;;5015473;28;20110;-80
2024/02/01 10:21:39;;;;;;;4.35;2.08;;;;;;;;;;5019088;28;20025;-82
2024/02/01 10:24:26;;;;;;;4.15;2.13;;;;;;;;;;5016855;28;20044;-82
2024/02/01 10:27:12;;;;;;;5.57;1.92;;;;;;;;;;5022923;28;20033;-81
2024/02/01 10:29:57;;;;;;;3.30;1.95;;;;;;;;;;5015244;28;20029;-83
2024/02/01 10:32:44;;;;;;;3.95;1.67;;;;;;;;;;5009990;28;20161;-81
2024/02/01 10:35:32;;;;;;;2.90;2.03;;;;;;;;;;5027559;28;20036;-81
2024/02/01 10:38:27;;;;;;;2.97;1.77;;;;;;;;;;5002895;28;20025;-79
2024/02/01 10:41:15;;;;;;;2.05;1.40;;;;;;;;;;5025826;28;20116;-79
2024/02/01 10:44:02;;;;;;;4.15;1.70;;;;;;;;;;5025132;28;20024;-79
2024/02/01 10:46:53;;;;;;;3.75;1.92;;;;;;;;;;5012557;28;20532;-80
2024/02/01 10:49:41;;;;;;;1.63;1.27;;;;;;;;;;5020246;28;20021;-78
2024/02/01 10:52:27;;;;;;;4.82;1.60;;;;;;;;;;5022862;28;20037;-80
2024/02/01 10:55:12;;;;;;;2.45;1.17;;;;;;;;;;5020640;28;20043;-79
2024/02/01 10:57:59;;;;;;;1.67;1.58;;;;;;;;;;5014066;28;20603;-80
2024/02/01 11:00:45;;;;;;;3.42;1.40;;;;;;;;;;5017777;28;20029;-80
2024/02/01 11:03:31;;;;;;;3.38;1.90;;;;;;;;;;5022023;28;20017;-79
2024/02/01 11:06:17;;;;;;;2.65;1.40;;;;;;;;;;5019209;28;20387;-92
2024/02/01 11:09:18;;;;;;;1.88;1.50;;;;;;;;;;5022693;28;20106;-89
2024/02/01 11:20:57;;;;;;;5.55;2.25;;;;;;;;;;4926832;28;20046;-87
2024/02/01 11:23:42;;;;;;;1.33;1.23;;;;;;;;;;4928954;28;20090;-83
2024/02/01 11:26:37;;;;;;;1.52;1.30;;;;;;;;;;4971515;28;20038;-85
2024/02/01 11:29:24;;;;;;;3.83;1.60;;;;;;;;;;4985948;28;20022;-87
2024/02/01 11:32:13;;;;;;;1.85;1.30;;;;;;;;;;4985002;28;20370;-86
2024/02/01 11:34:59;;;;;;;2.00;1.38;;;;;;;;;;4979300;28;20030;-82
2024/02/01 11:37:44;;;;;;;1.30;0.90;;;;;;;;;;4984888;28;20045;-86
2024/02/01 11:40:29;;;;;;;2.78;1.45;;;;;;;;;;4973888;28;20772;-84
2024/02/01 11:43:15;;;;;;;1.25;0.90;;;;;;;;;;4983666;28;20033;-85
2024/02/01 11:46:00;;;;;;;1.10;0.90;;;;;;;;;;4981362;28;20161;-81
2024/02/01 11:48:46;;;;;;;3.75;1.02;;;;;;;;;;4983551;28;20026;-84
2024/02/01 11:51:31;;;;;;;1.50;1.10;;;;;;;;;;4979723;28;20525;-82
2024/02/01 11:54:17;;;;;;;1.05;0.90;;;;;;;;;;4976503;28;20033;-83
2024/02/01 11:57:02;;;;;;;1.08;1.00;;;;;;;;;;4979619;28;20141;-85
2024/02/01 11:59:47;;;;;;;1.13;0.70;;;;;;;;;;4978743;28;20038;-85
2024/02/01 12:02:33;;;;;;;2.17;0.93;;;;;;;;;;4977320;28;20414;-86
2024/02/01 12:05:18;;;;;;;3.53;0.98;;;;;;;;;;4979343;28;20408;-89
2024/02/01 12:08:06;;;;;;;1.73;0.80;;;;;;;;;;4976060;28;20062;-86
2024/02/01 12:10:51;;;;;;;1.05;0.95;;;;;;;;;;4980027;28;21692;-84
2024/02/01 12:13:36;;;;;;;1.20;0.73;;;;;;;;;;4975789;28;20692;-85
2024/02/01 12:16:23;;;;;;;0.80;0.80;;;;;;;;;;4973660;28;20478;-86
2024/02/01 12:19:12;;;;;;;1.73;1.00;;;;;;;;;;4975322;28;20113;-87
2024/02/01 12:22:00;;;;;;;1.40;0.80;;;;;;;;;;4972266;28;20023;-87
2024/02/01 12:24:46;;;;;;;1.42;0.90;;;;;;;;;;4966488;28;20357;-90
2024/02/01 12:27:31;;;;;;;1.40;1.20;;;;;;;;;;4963809;28;20038;-87
2024/02/01 12:30:21;;;;;;;1.48;0.70;;;;;;;;;;4964816;28;20090;-86
2024/02/01 12:33:12;;;;;;;0.90;0.90;;;;;;;;;;4962240;28;20477;-85
2024/02/01 12:35:57;;;;;;;2.13;0.80;;;;;;;;;;4966125;28;20097;-87
2024/02/01 12:38:44;;;;;;;1.77;0.80;;;;;;;;;;4966757;28;20043;-87
2024/02/01 12:41:34;;;;;;;1.25;0.95;;;;;;;;;;4970695;28;20451;-84
2024/02/01 12:44:20;;;;;;;5.00;1.73;;;;;;;;;;4968720;28;20050;-85
2024/02/01 12:47:06;;;;;;;2.45;1.48;;;;;;;;;;4969650;28;20159;-87
2024/02/01 12:49:51;;;;;;;1.77;1.10;;;;;;;;;;4961613;28;20788;-89
2024/02/01 12:52:36;;;;;;;1.75;0.82;;;;;;;;;;4971590;28;20026;-84
2024/02/01 12:55:22;;;;;;;2.55;0.90;;;;;;;;;;4968127;28;20026;-88
2024/02/01 12:58:07;;;;;;;1.27;0.90;;;;;;;;;;4967409;28;20085;-87
2024/02/01 13:00:52;;;;;;;2.05;1.23;;;;;;;;;;4968032;28;20034;-87
2024/02/01 13:03:38;;;;;;;1.15;1.05;;;;;;;;;;4968828;28;20404;-87
2024/02/01 13:06:23;;;;;;;1.33;1.23;;;;;;;;;;4964545;28;20037;-87
2024/02/01 13:09:08;;;;;;;1.33;1.08;;;;;;;;;;4968829;28;20261;-88
2024/02/01 13:12:00;;;;;;;1.40;1.30;;;;;;;;;;4962081;28;20109;-87
2024/02/01 13:14:57;;;;;;;1.85;1.20;;;;;;;;;;4964475;28;20027;-87
2024/02/01 13:17:46;;;;;;;1.75;1.30;;;;;;;;;;4971050;28;20051;-85
2024/02/01 13:20:31;;;;;;;1.60;1.45;;;;;;;;;;4966818;28;20035;-87
2024/02/01 13:23:17;;;;;;;1.45;1.30;;;;;;;;;;4966968;28;20035;-88
2024/02/01 13:26:03;;;;;;;2.47;2.00;;;;;;;;;;4954385;28;20034;-85
2024/02/01 13:28:48;;;;;;;2.65;1.90;;;;;;;;;;4968838;28;20080;-87
2024/02/01 13:31:37;;;;;;;2.80;1.95;;;;;;;;;;4971301;28;20026;-85
2024/02/01 13:34:22;;;;;;;3.30;1.88;;;;;;;;;;4966344;28;20089;-84
2024/02/01 13:37:09;;;;;;;2.67;2.05;;;;;;;;;;4965132;28;20163;-86
2024/02/01 13:39:54;;;;;;;3.63;2.47;;;;;;;;;;4973880;28;20054;-85
2024/02/01 13:42:43;;;;;;;3.15;2.20;;;;;;;;;;4963828;28;20018;-85
2024/02/01 13:45:28;;;;;;;3.58;2.83;;;;;;;;;;4966381;28;20532;-86
2024/02/01 13:48:14;;;;;;;4.43;2.60;;;;;;;;;;4957542;28;20109;-85
2024/02/01 13:51:03;;;;;;;4.60;2.88;;;;;;;;;;4964327;28;20034;-85
2024/02/01 13:53:48;;;;;;;5.65;3.60;;;;;;;;;;4966488;28;20129;-82
2024/02/01 13:56:34;;;;;;;6.00;3.60;;;;;;;;;;4971811;28;20038;-85
2024/02/01 13:59:19;;;;;;;4.20;2.97;;;;;;;;;;4951939;28;20046;-86
2024/02/01 14:02:08;;;;;;;7.25;3.88;;;;;;;;;;4972222;28;20030;-84
2024/02/01 14:04:57;;;;;;;2.67;2.45;;;;;;;;;;4968962;28;20058;-85
2024/02/01 14:07:46;;;;;;;4.53;2.95;;;;;;;;;;4972240;28;20030;-83
2024/02/01 14:10:31;;;;;;;5.18;3.05;;;;;;;;;;4951518;28;20149;-84
2024/02/01 14:13:19;;;;;;;3.47;2.47;;;;;;;;;;4975792;28;20042;-86
2024/02/01 14:16:07;;;;;;;4.05;2.90;;;;;;;;;;4956218;28;20046;-88
2024/02/01 14:18:52;;;;;;;4.05;2.70;;;;;;;;;;4972485;28;20057;-87
2024/02/01 14:21:37;;;;;;;4.18;3.10;;;;;;;;;;4971526;28;20023;-84
2024/02/01 14:24:23;;;;;;;6.25;2.90;;;;;;;;;;4968758;28;20112;-85
2024/02/01 14:27:09;;;;;;;4.22;2.97;;;;;;;;;;4963355;28;20042;-93
2024/02/01 14:29:54;;;;;;;3.45;2.90;;;;;;;;;;4988847;28;20030;-92
2024/02/01 14:32:40;;;;;;;4.10;2.85;;;;;;;;;;4972136;28;20030;-89
2024/02/01 14:35:25;;;;;;;4.43;3.15;;;;;;;;;;4971341;28;20038;-87
2024/02/01 14:38:10;;;;;;;3.70;2.50;;;;;;;;;;4966216;28;20034;-87
2024/02/01 14:40:56;;;;;;;4.53;2.70;;;;;;;;;;4968568;28;20632;-87
2024/02/01 14:43:41;;;;;;;5.82;2.67;;;;;;;;;;4974287;28;20018;-87
2024/02/01 14:46:26;;;;;;;3.75;2.58;;;;;;;;;;4973014;28;20026;-87
2024/02/01 14:49:12;;;;;;;3.55;2.70;;;;;;;;;;4975420;28;20044;-86
2024/02/01 14:51:57;;;;;;;4.40;2.50;;;;;;;;;;4970198;28;20147;-88
2024/02/01 14:54:42;;;;;;;4.07;3.20;;;;;;;;;;4972784;28;20069;-88
2024/02/01 14:57:28;;;;;;;3.88;3.05;;;;;;;;;;4971094;28;20019;-87
2024/02/01 15:00:14;;;;;;;4.97;3.08;;;;;;;;;;4974852;28;20037;-87
2024/02/01 15:03:00;;;;;;;6.75;4.43;;;;;;;;;;4969343;28;20032;-89
2024/02/01 15:05:45;;;;;;;4.88;3.13;;;;;;;;;;4972595;28;20027;-90
2024/02/01 15:08:31;;;;;;;4.82;2.97;;;;;;;;;;4966724;28;20125;-90
2024/02/01 15:11:17;;;;;;;4.28;3.05;;;;;;;;;;4966264;28;20083;-89
2024/02/01 15:14:02;;;;;;;4.35;3.13;;;;;;;;;;4962344;28;20023;-88
2024/02/01 15:16:47;;;;;;;7.47;4.15;;;;;;;;;;4971808;28;20608;-88
2024/02/01 15:19:32;;;;;;;8.27;4.03;;;;;;;;;;4971486;28;20057;-89
2024/02/01 15:22:18;;;;;;;5.53;3.22;;;;;;;;;;4970990;28;20027;-88
2024/02/01 15:25:03;;;;;;;4.78;3.47;;;;;;;;;;4975748;28;20085;-89
2024/02/01 15:27:49;;;;;;;5.13;3.65;;;;;;;;;;4954851;28;20034;-87
2024/02/01 15:30:39;;;;;;;5.82;3.28;;;;;;;;;;4968895;28;20042;-88
2024/02/01 15:33:26;;;;;;;6.45;3.45;;;;;;;;;;4976632;28;20027;-88
2024/02/01 15:36:11;;;;;;;5.47;2.97;;;;;;;;;;4970167;28;20023;-89
2024/02/01 15:38:56;;;;;;;5.63;3.50;;;;;;;;;;4963839;28;20031;-90
2024/02/01 15:41:45;;;;;;;5.38;3.63;;;;;;;;;;4969676;28;20038;-92
2024/02/01 15:44:31;;;;;;;4.30;3.15;;;;;;;;;;4993057;28;20033;-89
2024/02/01 15:47:16;;;;;;;5.38;2.90;;;;;;;;;;4991557;28;20034;-91
2024/02/01 15:50:03;;;;;;;6.93;3.28;;;;;;;;;;4961762;28;20038;-85
2024/02/01 15:52:54;;;;;;;4.25;3.13;;;;;;;;;;4967046;28;20038;-84
2024/02/01 15:55:41;;;;;;;5.93;3.30;;;;;;;;;;4964162;28;20517;-87
2024/02/01 15:58:27;;;;;;;7.60;4.35;;;;;;;;;;4971207;28;20051;-86
2024/02/01 16:01:12;;;;;;;3.97;3.05;;;;;;;;;;4972486;28;20026;-85
2024/02/01 16:03:57;;;;;;;6.55;3.28;;;;;;;;;;4966730;28;20027;-85
2024/02/01 16:06:42;;;;;;;4.07;3.08;;;;;;;;;;4970552;28;20359;-85
2024/02/01 16:09:27;;;;;;;7.05;3.65;;;;;;;;;;4967793;28;20085;-82
2024/02/01 16:12:17;;;;;;;8.00;3.67;;;;;;;;;;4971286;28;20521;-83
2024/02/01 16:15:04;;;;;;;5.65;3.50;;;;;;;;;;4964493;28;20026;-89
2024/02/01 16:17:51;;;;;;;5.05;3.40;;;;;;;;;;4969216;28;20620;-83
2024/02/01 16:20:41;;;;;;;11.35;4.28;;;;;;;;;;4942283;28;20031;-88
2024/02/01 16:23:32;;;;;;;11.07;5.65;;;;;;;;;;4960723;28;20034;-89
2024/02/01 16:26:17;;;;;;;9.40;5.32;;;;;;;;;;4963158;28;20031;-88
2024/02/01 16:29:03;;;;;;;7.68;4.63;;;;;;;;;;4961006;28;20031;-89
2024/02/01 16:31:49;;;;;;;7.93;4.28;;;;;;;;;;4962692;28;20939;-89
2024/02/01 16:34:39;;;;;;;6.45;3.97;;;;;;;;;;4971742;28;20532;-87
2024/02/01 16:37:25;;;;;;;7.78;4.53;;;;;;;;;;4963528;28;20113;-89
2024/02/01 16:40:16;;;;;;;10.98;5.35;;;;;;;;;;4968403;28;20038;-87
2024/02/01 16:43:04;;;;;;;8.75;5.03;;;;;;;;;;4964979;28;20106;-86
2024/02/01 16:45:49;;;;;;;7.50;3.95;;;;;;;;;;4973961;28;20073;-85
2024/02/01 16:48:35;;;;;;;7.38;4.32;;;;;;;;;;4971541;28;20118;-84
2024/02/01 16:51:21;;;;;;;7.35;3.97;;;;;;;;;;4979277;28;20035;-84
2024/02/01 16:54:07;;;;;;;7.03;3.97;;;;;;;;;;4957151;28;20039;-85
2024/02/01 16:56:52;;;;;;;7.15;4.35;;;;;;;;;;4961704;28;20399;-86
2024/02/01 16:59:37;;;;;;;7.35;4.70;;;;;;;;;;4956707;28;20041;-83
2024/02/01 17:02:42;;;;;;;8.65;4.95;;;;;;;;;;4959318;28;20027;-84
2024/02/01 17:05:29;;;;;;;8.48;4.93;;;;;;;;;;4950647;28;20038;-85
2024/02/01 17:08:29;;;;;;;6.78;4.20;;;;;;;;;;4955983;28;20125;-84
2024/02/01 17:11:23;;;;;;;7.38;4.53;;;;;;;;;;4964099;28;20469;-85
2024/02/01 17:14:17;;;;;;;6.85;4.10;;;;;;;;;;4964577;28;20042;-84
2024/02/01 17:17:12;;;;;;;6.75;3.78;;;;;;;;;;4962449;28;20186;-83
2024/02/01 17:19:57;;;;;;;5.50;3.88;;;;;;;;;;4940470;28;20050;-82
2024/02/01 17:22:43;;;;;;;7.28;3.97;;;;;;;;;;4963173;28;20078;-84
2024/02/01 17:25:38;;;;;;;7.30;4.22;;;;;;;;;;4964539;28;20038;-85
2024/02/01 17:28:23;;;;;;;8.13;4.32;;;;;;;;;;4954401;28;20018;-84